createdAt,value
2022-09-09T00:02:22.128Z,98.30
2022-09-09T00:05:01.957Z,98.30
2022-09-09T00:07:40.440Z,98.50
2022-09-09T00:10:12.218Z,98.40
2022-09-09T00:13:00.640Z,98.40
2022-09-09T00:15:32.902Z,98.60
2022-09-09T00:18:13.193Z,98.50
2022-09-09T00:20:47.874Z,98.30
2022-09-09T00:23:27.425Z,98.00
2022-09-09T00:25:57.635Z,98.00
2022-09-09T00:28:28.715Z,97.70
2022-09-09T00:31:00.992Z,97.50
2022-09-09T00:33:38.233Z,97.40
2022-09-09T00:36:14.535Z,97.50
2022-09-09T00:38:50.451Z,98.10
2022-09-09T00:41:45.725Z,97.90
2022-09-09T00:44:25.067Z,98.00
2022-09-09T00:50:09.132Z,98.50
2022-09-09T00:52:42.830Z,97.90
2022-09-09T00:55:15.422Z,97.70
2022-09-09T00:57:44.840Z,97.70
2022-09-09T01:00:29.953Z,98.40
2022-09-09T01:03:15.235Z,98.90
2022-09-09T01:05:44.938Z,98.60
2022-09-09T01:08:22.775Z,98.20
2022-09-09T01:10:57.892Z,97.90
2022-09-09T01:13:28.307Z,98.00
2022-09-09T01:16:14.592Z,97.70
2022-09-09T01:18:47.028Z,98.00
2022-09-09T01:21:30.592Z,98.60
2022-09-09T01:24:23.294Z,99.00
2022-09-09T01:26:55.312Z,98.60
2022-09-09T01:29:25.804Z,99.90
2022-09-09T01:31:56.892Z,99.60
2022-09-09T01:34:27.501Z,99.40
2022-09-09T01:37:05.671Z,99.40
2022-09-09T01:39:37.171Z,99.40
2022-09-09T01:42:09.370Z,99.50
2022-09-09T01:44:43.448Z,99.90
2022-09-09T01:47:16.561Z,99.90
2022-09-09T01:49:47.392Z,99.90
2022-09-09T01:52:17.034Z,99.90
2022-09-09T01:54:47.373Z,99.90
2022-09-09T01:57:27.733Z,99.90
2022-09-09T02:00:13.215Z,99.90
2022-09-09T02:02:48.582Z,99.90
2022-09-09T02:05:24.285Z,99.90
2022-09-09T02:07:59.652Z,99.90
2022-09-09T02:10:39.678Z,99.90
2022-09-09T02:13:13.538Z,99.90
2022-09-09T02:15:49.127Z,99.90
2022-09-09T02:18:22.126Z,99.90
2022-09-09T02:20:54.791Z,99.90
2022-09-09T02:23:28.689Z,99.90
2022-09-09T02:25:58.827Z,99.90
2022-09-09T02:28:30.256Z,99.90
2022-09-09T02:31:02.601Z,99.90
2022-09-09T02:33:41.434Z,99.90
2022-09-09T02:36:11.682Z,99.90
2022-09-09T02:38:45.862Z,99.90
2022-09-09T02:41:16.742Z,99.90
2022-09-09T02:43:45.817Z,99.90
2022-09-09T02:46:21.042Z,99.90
2022-09-09T02:49:10.807Z,99.90
2022-09-09T02:51:45.276Z,99.90
2022-09-09T02:54:23.407Z,99.90
2022-09-09T02:56:55.472Z,99.90
2022-09-09T02:59:24.991Z,99.90
2022-09-09T03:01:54.081Z,99.90
2022-09-09T03:04:22.915Z,99.90
2022-09-09T03:06:54.538Z,99.90
2022-09-09T03:09:23.407Z,99.90
2022-09-09T03:11:52.771Z,99.90
2022-09-09T03:14:26.986Z,99.90
2022-09-09T03:16:58.341Z,99.90
2022-09-09T03:19:27.452Z,99.90
2022-09-09T03:21:58.997Z,99.90
2022-09-09T03:24:28.060Z,99.90
2022-09-09T03:26:58.222Z,99.90
2022-09-09T03:29:32.075Z,99.90
2022-09-09T03:32:01.148Z,99.90
2022-09-09T03:34:31.788Z,99.90
2022-09-09T03:37:12.247Z,99.90
2022-09-09T03:39:41.414Z,99.90
2022-09-09T03:42:18.189Z,99.90
2022-09-09T03:44:52.588Z,99.90
2022-09-09T03:47:25.662Z,99.90
2022-09-09T03:49:59.459Z,99.90
2022-09-09T03:52:35.243Z,99.90
2022-09-09T03:55:08.587Z,99.90
2022-09-09T03:57:41.636Z,99.90
2022-09-09T04:00:18.177Z,99.90
2022-09-09T04:02:48.281Z,99.90
2022-09-09T04:05:21.828Z,99.90
2022-09-09T04:10:33.894Z,99.90
2022-09-09T04:13:05.065Z,99.90
2022-09-09T04:15:34.778Z,99.90
2022-09-09T04:18:05.341Z,99.90
2022-09-09T04:23:16.303Z,99.90
2022-09-09T04:25:52.328Z,99.90
2022-09-09T04:28:30.578Z,99.90
2022-09-09T04:31:06.921Z,99.90
2022-09-09T04:33:39.940Z,99.90
2022-09-09T04:36:13.501Z,99.90
2022-09-09T04:38:43.582Z,99.90
2022-09-09T04:41:13.739Z,99.90
2022-09-09T04:43:43.023Z,99.90
2022-09-09T04:46:16.913Z,99.90
2022-09-09T04:48:48.584Z,99.90
2022-09-09T04:51:19.311Z,99.90
2022-09-09T04:53:52.431Z,99.90
2022-09-09T04:56:33.170Z,99.90
2022-09-09T04:59:13.767Z,99.90
2022-09-09T05:01:44.584Z,99.90
2022-09-09T05:04:13.713Z,99.90
2022-09-09T05:06:51.560Z,99.90
2022-09-09T05:09:20.590Z,99.90
2022-09-09T05:11:53.918Z,99.90
2022-09-09T05:14:23.759Z,99.90
2022-09-09T05:16:53.159Z,99.90
2022-09-09T05:19:22.459Z,99.90
2022-09-09T05:21:53.860Z,99.90
2022-09-09T05:24:23.363Z,99.90
2022-09-09T05:26:52.496Z,99.90
2022-09-09T05:29:23.781Z,99.90
2022-09-09T05:31:54.182Z,99.90
2022-09-09T05:34:23.354Z,99.90
2022-09-09T05:36:52.390Z,99.90
2022-09-09T05:39:21.246Z,99.90
2022-09-09T05:41:54.092Z,99.90
2022-09-09T05:44:23.202Z,99.90
2022-09-09T05:46:57.509Z,99.90
2022-09-09T05:49:26.707Z,99.90
2022-09-09T05:52:12.683Z,99.90
2022-09-09T05:54:43.825Z,99.90
2022-09-09T05:57:12.401Z,99.90
2022-09-09T05:59:41.256Z,99.90
2022-09-09T06:02:11.107Z,99.90
2022-09-09T06:04:40.773Z,99.90
2022-09-09T06:07:09.340Z,99.90
2022-09-09T06:09:37.913Z,99.90
2022-09-09T06:12:06.703Z,99.90
2022-09-09T06:14:35.266Z,99.90
2022-09-09T06:17:04.608Z,99.90
2022-09-09T06:19:33.358Z,99.90
2022-09-09T06:22:01.950Z,99.90
2022-09-09T06:24:32.417Z,99.90
2022-09-09T06:27:00.957Z,99.90
2022-09-09T06:29:29.556Z,99.90
2022-09-09T06:31:58.579Z,99.90
2022-09-09T06:34:27.158Z,99.90
2022-09-09T06:36:55.855Z,99.90
2022-09-09T06:39:24.632Z,99.90
2022-09-09T06:41:55.222Z,99.90
2022-09-09T06:44:25.492Z,99.90
2022-09-09T06:46:54.406Z,99.90
2022-09-09T06:49:23.202Z,99.90
2022-09-09T06:51:54.032Z,99.90
2022-09-09T06:54:24.377Z,99.90
2022-09-09T06:56:52.960Z,99.90
2022-09-09T06:59:21.685Z,99.90
2022-09-09T07:01:54.870Z,99.90
2022-09-09T07:04:24.253Z,99.90
2022-09-09T07:06:54.514Z,99.90
2022-09-09T07:09:23.720Z,99.90
2022-09-09T07:11:54.917Z,99.90
2022-09-09T07:14:24.155Z,99.90
2022-09-09T07:16:54.548Z,99.90
2022-09-09T07:19:26.333Z,99.90
2022-09-09T07:21:54.851Z,99.90
2022-09-09T07:24:23.445Z,99.90
2022-09-09T07:26:52.046Z,99.90
2022-09-09T07:29:21.144Z,99.90
2022-09-09T07:31:50.438Z,99.90
2022-09-09T07:34:19.096Z,99.90
2022-09-09T07:36:49.837Z,99.90
2022-09-09T07:39:19.933Z,99.90
2022-09-09T07:41:49.644Z,99.90
2022-09-09T07:44:23.734Z,99.90
2022-09-09T07:46:52.481Z,99.90
2022-09-09T07:49:27.497Z,99.90
2022-09-09T07:51:58.587Z,99.90
2022-09-09T07:54:28.246Z,99.90
2022-09-09T07:56:56.817Z,99.90
2022-09-09T07:59:26.467Z,99.90
2022-09-09T08:01:57.268Z,99.90
2022-09-09T08:04:27.525Z,99.90
2022-09-09T08:07:00.538Z,99.90
2022-09-09T08:09:30.985Z,99.90
2022-09-09T08:12:00.410Z,99.90
2022-09-09T08:14:29.055Z,99.90
2022-09-09T08:16:58.368Z,99.90
2022-09-09T08:19:27.034Z,99.90
2022-09-09T08:21:56.223Z,99.90
2022-09-09T08:24:25.292Z,99.90
2022-09-09T08:26:53.811Z,99.90
2022-09-09T08:29:22.571Z,99.90
2022-09-09T08:31:56.453Z,99.90
2022-09-09T08:34:26.423Z,99.90
2022-09-09T08:36:55.117Z,99.90
2022-09-09T08:39:25.166Z,99.90
2022-09-09T08:42:02.724Z,99.90
2022-09-09T08:44:40.254Z,99.90
2022-09-09T08:47:29.463Z,99.90
2022-09-09T08:50:20.450Z,99.90
2022-09-09T08:53:07.993Z,99.90
2022-09-09T08:55:43.755Z,99.90
2022-09-09T08:58:18.131Z,99.90
2022-09-09T09:01:04.883Z,99.90
2022-09-09T09:03:44.569Z,99.90
2022-09-09T09:06:25.103Z,99.90
2022-09-09T09:09:08.854Z,99.90
2022-09-09T09:11:41.279Z,99.90
2022-09-09T09:14:25.522Z,99.90
2022-09-09T09:17:04.233Z,99.90
2022-09-09T09:19:34.448Z,99.90
2022-09-09T09:22:18.156Z,99.90
2022-09-09T09:24:53.566Z,99.90
2022-09-09T09:27:25.566Z,99.90
2022-09-09T09:30:21.605Z,99.90
2022-09-09T09:32:51.333Z,99.90
2022-09-09T09:35:19.835Z,99.90
2022-09-09T09:40:37.551Z,99.90
2022-09-09T09:43:10.753Z,99.90
2022-09-09T09:46:07.339Z,99.90
2022-09-09T09:48:40.915Z,99.90
2022-09-09T09:51:12.652Z,99.90
2022-09-09T09:53:41.197Z,99.90
2022-09-09T09:56:13.614Z,99.90
2022-09-09T09:58:42.081Z,99.90
2022-09-09T10:01:22.249Z,99.90
2022-09-09T10:03:55.574Z,99.90
2022-09-09T10:06:35.236Z,99.90
2022-09-09T10:09:06.689Z,99.90
2022-09-09T10:11:46.453Z,99.90
2022-09-09T10:14:20.580Z,99.90
2022-09-09T10:16:55.123Z,99.90
2022-09-09T10:19:32.893Z,99.90
2022-09-09T10:22:08.890Z,99.90
2022-09-09T10:24:55.802Z,99.90
2022-09-09T10:27:31.040Z,99.90
2022-09-09T10:29:59.510Z,99.90
2022-09-09T10:32:40.933Z,99.90
2022-09-09T10:35:19.188Z,99.90
2022-09-09T10:37:47.652Z,99.90
2022-09-09T10:40:28.403Z,99.90
2022-09-09T10:43:00.652Z,99.90
2022-09-09T10:45:29.121Z,99.90
2022-09-09T10:48:06.950Z,99.90
2022-09-09T10:51:01.238Z,99.90
2022-09-09T10:53:29.900Z,99.90
2022-09-09T10:56:04.075Z,99.90
2022-09-09T10:58:38.333Z,99.90
2022-09-09T11:01:18.262Z,99.90
2022-09-09T11:03:50.476Z,99.90
2022-09-09T11:06:22.154Z,99.90
2022-09-09T11:08:53.863Z,99.90
2022-09-09T11:11:32.122Z,99.90
2022-09-09T11:14:06.415Z,99.90
2022-09-09T11:16:52.446Z,99.90
2022-09-09T11:19:21.269Z,99.90
2022-09-09T11:21:51.616Z,99.90
2022-09-09T11:24:33.605Z,99.90
2022-09-09T11:27:11.017Z,99.90
2022-09-09T11:29:49.728Z,99.90
2022-09-09T11:32:27.360Z,99.90
2022-09-09T11:34:55.886Z,99.90
2022-09-09T11:37:30.440Z,99.90
2022-09-09T11:39:59.285Z,99.90
2022-09-09T11:42:28.040Z,99.90
2022-09-09T11:44:57.105Z,99.90
2022-09-09T11:47:33.445Z,99.90
2022-09-09T11:50:17.176Z,99.90
2022-09-09T11:52:50.468Z,99.90
2022-09-09T11:55:34.936Z,99.90
2022-09-09T11:58:05.377Z,99.90
2022-09-09T12:00:39.242Z,99.90
2022-09-09T12:03:08.339Z,99.90
2022-09-09T12:05:43.455Z,99.90
2022-09-09T12:08:13.744Z,99.90
2022-09-09T12:10:42.672Z,99.90
2022-09-09T12:13:25.031Z,99.90
2022-09-09T12:15:55.758Z,99.90
2022-09-09T12:18:27.573Z,99.90
2022-09-09T12:21:07.816Z,99.90
2022-09-09T12:23:39.578Z,99.90
2022-09-09T12:26:15.432Z,99.90
2022-09-09T12:28:53.223Z,99.90
2022-09-09T12:31:24.871Z,99.90
2022-09-09T12:33:54.883Z,99.90
2022-09-09T12:36:27.959Z,99.90
2022-09-09T12:38:57.457Z,99.90
2022-09-09T12:41:28.884Z,99.90
2022-09-09T12:44:12.064Z,99.90
2022-09-09T12:46:45.191Z,99.90
2022-09-09T12:49:31.089Z,99.90
2022-09-09T12:52:00.699Z,99.90
2022-09-09T12:54:30.219Z,99.90
2022-09-09T12:56:59.747Z,99.90
2022-09-09T12:59:37.704Z,99.90
2022-09-09T13:02:14.592Z,99.90
2022-09-09T13:04:43.128Z,99.90
2022-09-09T13:07:12.119Z,99.90
2022-09-09T13:09:40.823Z,99.90
2022-09-09T13:12:16.932Z,99.90
2022-09-09T13:14:48.840Z,99.90
2022-09-09T13:17:29.372Z,99.90
2022-09-09T13:20:00.419Z,99.90
2022-09-09T13:22:34.969Z,99.90
2022-09-09T13:25:05.220Z,99.90
2022-09-09T13:27:40.819Z,99.90
2022-09-09T13:30:24.993Z,99.90
2022-09-09T13:33:04.198Z,99.90
2022-09-09T13:35:33.348Z,99.90
2022-09-09T13:38:09.769Z,99.90
2022-09-09T13:40:38.940Z,99.90
2022-09-09T13:43:07.579Z,99.90
2022-09-09T13:45:36.641Z,99.90
2022-09-09T13:48:13.542Z,99.90
2022-09-09T13:50:43.631Z,99.90
2022-09-09T13:53:14.244Z,99.90
2022-09-09T13:55:44.016Z,99.90
2022-09-09T13:58:17.780Z,99.90
2022-09-09T14:00:46.839Z,99.90
2022-09-09T14:03:16.185Z,99.90
2022-09-09T14:05:47.636Z,99.90
2022-09-09T14:08:23.804Z,99.90
2022-09-09T14:10:52.787Z,99.90
2022-09-09T14:13:23.183Z,99.90
2022-09-09T14:15:51.975Z,99.90
2022-09-09T14:18:20.613Z,99.90
2022-09-09T14:20:49.248Z,99.90
2022-09-09T14:23:17.835Z,99.90
2022-09-09T14:25:48.709Z,99.90
2022-09-09T14:28:20.430Z,99.90
2022-09-09T14:30:51.463Z,99.90
2022-09-09T14:33:19.952Z,99.90
2022-09-09T14:35:48.447Z,99.90
2022-09-09T14:38:19.071Z,99.90
2022-09-09T14:40:48.984Z,99.90
2022-09-09T14:43:17.515Z,99.90
2022-09-09T14:45:46.436Z,99.90
2022-09-09T14:48:15.316Z,99.90
2022-09-09T14:50:43.892Z,99.90
2022-09-09T14:53:12.686Z,99.90
2022-09-09T14:55:41.285Z,99.90
2022-09-09T14:58:09.989Z,99.90
2022-09-09T15:00:38.581Z,99.90
2022-09-09T15:03:07.084Z,99.90
2022-09-09T15:05:35.640Z,99.90
2022-09-09T15:08:06.952Z,99.90
2022-09-09T15:10:35.455Z,99.90
2022-09-09T15:13:03.944Z,99.90
2022-09-09T15:15:32.412Z,99.90
2022-09-09T15:18:01.029Z,99.90
2022-09-09T15:20:29.501Z,99.90
2022-09-09T15:22:58.507Z,99.90
2022-09-09T15:25:27.388Z,99.90
2022-09-09T15:27:56.193Z,99.90
2022-09-09T15:30:24.657Z,99.90
2022-09-09T15:32:55.115Z,99.90
2022-09-09T15:35:23.587Z,99.90
2022-09-09T15:37:52.104Z,99.90
2022-09-09T15:40:20.874Z,99.90
2022-09-09T15:42:49.374Z,99.90
2022-09-09T15:45:17.940Z,99.90
2022-09-09T15:47:47.448Z,99.90
2022-09-09T15:50:16.062Z,99.90
2022-09-09T15:52:44.520Z,99.90
2022-09-09T15:55:13.105Z,99.90
2022-09-09T15:57:42.744Z,99.90
2022-09-09T16:00:14.591Z,99.90
2022-09-09T16:02:43.133Z,99.90
2022-09-09T16:05:11.772Z,99.90
2022-09-09T16:07:40.315Z,99.90
2022-09-09T16:10:09.584Z,99.90
2022-09-09T16:12:38.380Z,99.90
2022-09-09T16:15:07.345Z,99.90
2022-09-09T16:17:40.783Z,99.90
2022-09-09T16:20:10.735Z,99.90
2022-09-09T16:22:39.463Z,99.90
2022-09-09T16:25:08.437Z,99.90
2022-09-09T16:27:36.984Z,99.90
2022-09-09T16:30:05.870Z,99.90
2022-09-09T16:32:34.866Z,99.90
2022-09-09T16:35:03.685Z,99.90
2022-09-09T16:37:32.196Z,99.90
2022-09-09T16:40:02.084Z,99.90
2022-09-09T16:42:30.630Z,99.90
2022-09-09T16:44:59.085Z,99.90
2022-09-09T16:47:27.613Z,99.90
2022-09-09T16:49:56.140Z,99.90
2022-09-09T16:52:24.696Z,99.90
2022-09-09T16:54:53.155Z,99.90
2022-09-09T16:57:21.669Z,99.90
2022-09-09T16:59:50.266Z,99.90
2022-09-09T17:02:18.843Z,99.90
2022-09-09T17:04:47.431Z,99.90
2022-09-09T17:07:17.437Z,99.90
2022-09-09T17:09:46.382Z,99.90
2022-09-09T17:12:14.844Z,99.90
2022-09-09T17:14:43.314Z,99.90
2022-09-09T17:17:30.655Z,99.90
2022-09-09T17:20:00.294Z,99.90
2022-09-09T17:22:29.076Z,99.90
2022-09-09T17:24:57.563Z,99.90
2022-09-09T17:27:26.178Z,99.90
2022-09-09T17:29:54.863Z,99.90
2022-09-09T17:32:23.335Z,99.90
2022-09-09T17:34:51.800Z,99.90
2022-09-09T17:37:20.278Z,99.90
2022-09-09T17:39:48.829Z,99.90
2022-09-09T17:42:17.424Z,99.90
2022-09-09T17:44:45.997Z,99.90
2022-09-09T17:47:14.513Z,99.90
2022-09-09T17:49:43.053Z,99.90
2022-09-09T17:52:11.556Z,99.90
2022-09-09T17:54:40.145Z,99.90
2022-09-09T17:57:08.711Z,99.90
2022-09-09T17:59:38.932Z,99.90
2022-09-09T18:02:07.674Z,99.90
2022-09-09T18:04:38.176Z,99.90
2022-09-09T18:07:07.136Z,99.90
2022-09-09T18:09:35.850Z,99.90
2022-09-09T18:12:04.449Z,99.90
2022-09-09T18:14:33.392Z,99.90
2022-09-09T18:17:02.495Z,99.90
2022-09-09T18:19:35.613Z,99.90
2022-09-09T18:22:06.588Z,99.90
2022-09-09T18:24:35.439Z,99.90
2022-09-09T18:27:03.920Z,99.90
2022-09-09T18:29:32.385Z,99.90
2022-09-09T18:32:01.018Z,99.90
2022-09-09T18:34:31.226Z,99.90
2022-09-09T18:36:59.878Z,99.90
2022-09-09T18:39:30.353Z,99.90
2022-09-09T18:42:03.651Z,99.90
2022-09-09T18:44:34.267Z,99.90
2022-09-09T18:47:03.956Z,99.90
2022-09-09T18:49:32.551Z,99.90
2022-09-09T18:52:01.044Z,99.90
2022-09-09T18:54:31.425Z,99.90
2022-09-09T18:57:01.931Z,99.90
2022-09-09T18:59:30.764Z,99.90
2022-09-09T19:01:59.423Z,99.90
2022-09-09T19:04:28.412Z,99.90
2022-09-09T19:06:58.950Z,99.90
2022-09-09T19:09:28.881Z,99.90
2022-09-09T19:11:57.599Z,99.90
2022-09-09T19:14:26.219Z,99.90
2022-09-09T19:16:55.132Z,99.90
2022-09-09T19:19:25.515Z,99.90
2022-09-09T19:21:54.032Z,99.90
2022-09-09T19:24:23.934Z,99.90
2022-09-09T19:26:53.673Z,99.90
2022-09-09T19:29:23.851Z,99.90
2022-09-09T19:34:43.057Z,99.90
2022-09-09T19:37:14.072Z,99.90
2022-09-09T19:39:44.957Z,99.90
2022-09-09T19:42:13.451Z,99.90
2022-09-09T19:44:42.572Z,99.90
2022-09-09T19:47:11.048Z,99.90
2022-09-09T19:49:40.734Z,99.90
2022-09-09T19:52:10.852Z,99.90
2022-09-09T19:54:39.329Z,99.90
2022-09-09T19:57:07.869Z,99.90
2022-09-09T19:59:37.097Z,99.90
2022-09-09T20:02:05.731Z,99.90
2022-09-09T20:04:36.355Z,99.90
2022-09-09T20:07:04.934Z,99.90
2022-09-09T20:09:33.431Z,99.90
2022-09-09T20:12:01.944Z,99.90
2022-09-09T20:14:30.469Z,99.90
2022-09-09T20:16:58.947Z,99.90
2022-09-09T20:19:27.436Z,99.90
2022-09-09T20:21:56.684Z,99.90
2022-09-09T20:24:25.858Z,99.90
2022-09-09T20:26:54.381Z,99.90
2022-09-09T20:29:22.803Z,99.90
2022-09-09T20:31:51.274Z,99.90
2022-09-09T20:34:22.691Z,99.90
2022-09-09T20:36:52.108Z,99.90
2022-09-09T20:39:21.703Z,99.90
2022-09-09T20:41:50.953Z,99.90
2022-09-09T20:44:21.168Z,99.90
2022-09-09T20:46:51.147Z,99.90
2022-09-09T20:49:24.157Z,99.90
2022-09-09T20:51:53.547Z,99.90
2022-09-09T20:54:24.598Z,99.90
2022-09-09T20:56:54.576Z,99.90
2022-09-09T20:59:25.072Z,99.90
2022-09-09T21:01:54.272Z,99.90
2022-09-09T21:04:23.391Z,99.90
2022-09-09T21:06:52.276Z,99.90
2022-09-09T21:09:21.790Z,99.90
2022-09-09T21:11:50.312Z,99.90
2022-09-09T21:14:18.771Z,99.90
2022-09-09T21:16:47.246Z,99.90
2022-09-09T21:19:15.794Z,99.90
2022-09-09T21:21:44.327Z,99.90
2022-09-09T21:24:12.840Z,99.90
2022-09-09T21:26:41.324Z,99.90
2022-09-09T21:29:09.958Z,99.90
2022-09-09T21:31:38.907Z,99.90
2022-09-09T21:34:07.448Z,99.90
2022-09-09T21:36:35.937Z,99.90
2022-09-09T21:39:04.470Z,99.90
2022-09-09T21:41:32.999Z,99.90
2022-09-09T21:44:01.479Z,99.90
2022-09-09T21:46:30.378Z,99.90
2022-09-09T21:48:59.673Z,99.90
2022-09-09T21:51:28.136Z,99.90
2022-09-09T21:53:59.555Z,99.90
2022-09-09T21:56:28.185Z,99.90
2022-09-09T21:58:57.986Z,99.90
2022-09-09T22:01:27.039Z,99.90
2022-09-09T22:03:55.647Z,99.90
2022-09-09T22:06:24.103Z,99.90
2022-09-09T22:08:52.892Z,99.90
2022-09-09T22:11:23.464Z,99.90
2022-09-09T22:13:54.318Z,99.90
2022-09-09T22:16:23.975Z,99.90
2022-09-09T22:18:54.065Z,99.90
2022-09-09T22:21:23.899Z,99.90
2022-09-09T22:23:54.188Z,99.90
2022-09-09T22:26:23.616Z,99.90
2022-09-09T22:28:54.779Z,99.90
2022-09-09T22:31:23.788Z,99.90
2022-09-09T22:33:54.540Z,99.90
2022-09-09T22:36:23.091Z,99.90
2022-09-09T22:38:52.871Z,99.90
2022-09-09T22:41:21.956Z,99.90
2022-09-09T22:43:50.454Z,99.90
2022-09-09T22:46:19.995Z,99.90
2022-09-09T22:48:49.262Z,99.90
2022-09-09T22:51:18.359Z,99.90
2022-09-09T22:53:47.162Z,99.90
2022-09-09T22:56:18.214Z,99.90
2022-09-09T22:58:47.305Z,99.90
2022-09-09T23:01:20.264Z,99.90
2022-09-09T23:03:49.481Z,99.90
2022-09-09T23:06:24.508Z,99.90
2022-09-09T23:08:55.597Z,99.90
2022-09-09T23:11:24.675Z,99.90
2022-09-09T23:13:54.209Z,99.90
2022-09-09T23:16:26.800Z,99.90
2022-09-09T23:18:57.656Z,99.90
2022-09-09T23:21:29.315Z,99.90
2022-09-09T23:23:58.635Z,99.90
2022-09-09T23:26:27.906Z,99.90
2022-09-09T23:28:59.430Z,99.90
2022-09-09T23:31:30.290Z,99.90
2022-09-09T23:34:00.269Z,99.90
2022-09-09T23:36:30.660Z,99.90
2022-09-09T23:38:59.977Z,99.90
2022-09-09T23:41:28.813Z,99.90
2022-09-09T23:43:57.655Z,99.90
2022-09-09T23:46:30.777Z,99.90
2022-09-09T23:49:00.085Z,99.90
2022-09-09T23:51:29.967Z,99.90
2022-09-09T23:53:59.707Z,99.90
2022-09-09T23:56:29.173Z,99.90
2022-09-09T23:58:57.733Z,99.90
